createdAt,value
2019-03-13T00:00:09.195Z,0.1
2019-03-13T00:00:20.973Z,0.2
2019-03-13T00:00:32.750Z,0.2
2019-03-13T00:00:44.547Z,0.2
2019-03-13T00:00:56.352Z,0.2
2019-03-13T00:01:08.105Z,0.2
2019-03-13T00:01:19.874Z,0.2
2019-03-13T00:01:31.638Z,0.2
2019-03-13T00:01:43.407Z,0.2
2019-03-13T00:01:55.228Z,0.2
2019-03-13T00:02:07.032Z,0.1
2019-03-13T00:02:18.846Z,0.1
2019-03-13T00:02:30.627Z,0.1
2019-03-13T00:02:42.394Z,0.1
2019-03-13T00:02:54.200Z,0.1
2019-03-13T00:03:05.950Z,0.2
2019-03-13T00:03:17.720Z,0.2
2019-03-13T00:03:29.522Z,0.2
2019-03-13T00:03:41.297Z,0.2
2019-03-13T00:03:53.093Z,0.2
2019-03-13T00:04:04.902Z,0.2
2019-03-13T00:04:16.686Z,0.2
2019-03-13T00:04:28.529Z,0.4
2019-03-13T00:04:40.302Z,0.3
2019-03-13T00:04:52.083Z,0.3
2019-03-13T00:05:03.915Z,0.2
2019-03-13T00:05:15.673Z,0.2
2019-03-13T00:05:27.449Z,0.1
2019-03-13T00:05:39.207Z,0.1
2019-03-13T00:05:50.975Z,0.1
2019-03-13T00:06:02.775Z,0.1
2019-03-13T00:06:14.573Z,0.1
2019-03-13T00:06:26.341Z,0.1
2019-03-13T00:06:38.154Z,0.1
2019-03-13T00:06:49.908Z,0.2
2019-03-13T00:07:01.680Z,0.2
2019-03-13T00:07:13.505Z,0.3
2019-03-13T00:07:25.311Z,0.3
2019-03-13T00:07:37.080Z,0.2
2019-03-13T00:07:48.881Z,0.2
2019-03-13T00:08:00.650Z,0.1
2019-03-13T00:08:12.429Z,0.1
2019-03-13T00:08:24.211Z,0.1
2019-03-13T00:08:36.010Z,0.1
2019-03-13T00:08:47.777Z,0.1
2019-03-13T00:08:59.566Z,0.1
2019-03-13T00:09:11.390Z,0.1
2019-03-13T00:09:24.199Z,0.1
2019-03-13T00:09:36.007Z,0.1
2019-03-13T00:09:47.793Z,0.1
2019-03-13T00:09:59.609Z,0.1
2019-03-13T00:10:11.464Z,0.1
2019-03-13T00:10:23.261Z,0.2
2019-03-13T00:10:36.063Z,0.2
2019-03-13T00:10:47.877Z,0.2
2019-03-13T00:10:59.698Z,0.2
2019-03-13T00:11:11.557Z,0.2
2019-03-13T00:11:23.397Z,0.1
2019-03-13T00:11:35.234Z,0.2
2019-03-13T00:11:47.092Z,0.5
2019-03-13T00:11:58.842Z,0.5
2019-03-13T00:12:10.636Z,0.2
2019-03-13T00:12:22.446Z,0.1
2019-03-13T00:12:34.217Z,0.1
2019-03-13T00:12:45.970Z,0.1
2019-03-13T00:12:57.770Z,0.2
2019-03-13T00:13:09.538Z,0.2
2019-03-13T00:13:21.360Z,0.2
2019-03-13T00:13:33.138Z,1.6
2019-03-13T00:13:45.151Z,1.6
2019-03-13T00:13:56.817Z,0.2
2019-03-13T00:14:08.678Z,0.2
2019-03-13T00:14:20.481Z,0.2
2019-03-13T00:14:32.653Z,0.3
2019-03-13T00:14:44.447Z,0.3
2019-03-13T00:14:56.296Z,0.1
2019-03-13T00:15:08.110Z,0.1
2019-03-13T00:15:19.914Z,0.1
2019-03-13T00:15:31.730Z,0.1
2019-03-13T00:15:43.525Z,0.1
2019-03-13T00:15:55.360Z,0.1
2019-03-13T00:16:07.152Z,0.2
2019-03-13T00:16:18.941Z,0.2
2019-03-13T00:16:30.714Z,0.2
2019-03-13T00:16:42.493Z,0.2
2019-03-13T00:16:54.286Z,0.2
2019-03-13T00:17:06.048Z,0.2
2019-03-13T00:17:17.828Z,0.2
2019-03-13T00:17:29.645Z,0.2
2019-03-13T00:17:41.429Z,0.2
2019-03-13T00:17:53.220Z,0.1
2019-03-13T00:18:05.027Z,0.1
2019-03-13T00:18:16.825Z,0.1
2019-03-13T00:18:28.659Z,0.1
2019-03-13T00:18:40.471Z,0.1
2019-03-13T00:18:52.284Z,0.1
2019-03-13T00:19:04.128Z,0.1
2019-03-13T00:19:15.927Z,0.1
2019-03-13T00:19:27.678Z,0.2
2019-03-13T00:19:39.485Z,0.2
2019-03-13T00:19:51.255Z,0.1
2019-03-13T00:20:03.030Z,0.1
2019-03-13T00:20:14.872Z,0.1
2019-03-13T00:20:26.665Z,0.1
2019-03-13T00:20:38.444Z,0.1
2019-03-13T00:20:50.260Z,0.1
2019-03-13T00:21:02.066Z,0.1
2019-03-13T00:21:13.848Z,0.1
2019-03-13T00:21:25.596Z,0.1
2019-03-13T00:21:37.381Z,0.1
2019-03-13T00:21:49.167Z,0.1
2019-03-13T00:22:01.878Z,0.1
2019-03-13T00:22:13.859Z,0.1
2019-03-13T00:22:26.021Z,0.1
2019-03-13T00:22:37.897Z,0.2
2019-03-13T00:22:49.708Z,0.2
2019-03-13T00:23:01.471Z,0.2
2019-03-13T00:23:13.255Z,0.3
2019-03-13T00:23:25.068Z,0.3
2019-03-13T00:23:36.850Z,0.3
2019-03-13T00:23:48.647Z,0.2
2019-03-13T00:24:00.420Z,0.3
2019-03-13T00:24:12.214Z,0.3
2019-03-13T00:24:23.966Z,0.3
2019-03-13T00:24:35.798Z,0.1
2019-03-13T00:24:47.588Z,0.1
2019-03-13T00:25:00.388Z,0.2
2019-03-13T00:25:12.191Z,0.3
2019-03-13T00:25:23.951Z,0.3
2019-03-13T00:25:35.738Z,0.3
2019-03-13T00:25:47.529Z,0.2
2019-03-13T00:25:59.305Z,0.2
2019-03-13T00:26:11.084Z,0.1
2019-03-13T00:26:22.878Z,0.1
2019-03-13T00:26:34.658Z,0.2
2019-03-13T00:26:46.479Z,0.2
2019-03-13T00:26:58.234Z,0.1
2019-03-13T00:27:10.012Z,0.1
2019-03-13T00:27:21.858Z,0.1
2019-03-13T00:27:33.637Z,0.1
2019-03-13T00:27:45.411Z,0.1
2019-03-13T00:27:57.233Z,0.1
2019-03-13T00:28:09.037Z,0.1
2019-03-13T00:28:20.804Z,0.1
2019-03-13T00:28:32.584Z,0.1
2019-03-13T00:28:44.370Z,0.2
2019-03-13T00:28:56.168Z,0.2
2019-03-13T00:29:07.948Z,0.2
2019-03-13T00:29:19.712Z,0.2
2019-03-13T00:29:31.535Z,0.2
2019-03-13T00:29:43.338Z,0.2
2019-03-13T00:29:55.124Z,1.9
2019-03-13T00:30:06.936Z,1.9
2019-03-13T00:30:18.709Z,0.1
2019-03-13T00:30:30.495Z,0.1
2019-03-13T00:30:42.286Z,0.1
2019-03-13T00:30:54.069Z,0.1
2019-03-13T00:31:05.857Z,0.1
2019-03-13T00:31:17.666Z,0.1
2019-03-13T00:31:29.444Z,0.1
2019-03-13T00:31:41.330Z,0.1
2019-03-13T00:31:53.059Z,0.2
2019-03-13T00:32:04.816Z,0.2
2019-03-13T00:32:16.643Z,0.2
2019-03-13T00:32:28.499Z,0.2
2019-03-13T00:32:40.263Z,0.2
2019-03-13T00:32:52.064Z,0.2
2019-03-13T00:33:03.895Z,0.2
2019-03-13T00:33:15.657Z,0.1
2019-03-13T00:33:27.440Z,0.1
2019-03-13T00:33:39.237Z,0.1
2019-03-13T00:33:51.054Z,0.1
2019-03-13T00:34:02.832Z,0.1
2019-03-13T00:34:14.605Z,0.1
2019-03-13T00:34:26.407Z,0.1
2019-03-13T00:34:38.206Z,0.1
2019-03-13T00:34:50.150Z,0.2
2019-03-13T00:35:01.931Z,0.2
2019-03-13T00:35:13.719Z,0.2
2019-03-13T00:35:25.500Z,0.2
2019-03-13T00:35:37.292Z,0.1
2019-03-13T00:35:49.077Z,0.1
2019-03-13T00:36:00.881Z,0.2
2019-03-13T00:36:12.666Z,0.2
2019-03-13T00:36:24.448Z,0.2
2019-03-13T00:36:36.225Z,0.2
2019-03-13T00:36:48.053Z,3.5
2019-03-13T00:36:59.887Z,3.5
2019-03-13T00:37:11.686Z,3.5
2019-03-13T00:37:23.484Z,0.1
2019-03-13T00:37:35.292Z,0.1
2019-03-13T00:37:47.057Z,0.1
2019-03-13T00:37:58.860Z,0.1
2019-03-13T00:38:10.659Z,0.1
2019-03-13T00:38:22.470Z,0.2
2019-03-13T00:38:34.294Z,0.2
2019-03-13T00:38:46.083Z,0.3
2019-03-13T00:38:57.894Z,0.3
2019-03-13T00:39:09.648Z,0.2
2019-03-13T00:39:21.449Z,0.1
2019-03-13T00:39:33.240Z,0.1
2019-03-13T00:39:45.068Z,0.1
2019-03-13T00:39:56.879Z,0.1
2019-03-13T00:40:08.671Z,0.1
2019-03-13T00:40:20.480Z,0.1
2019-03-13T00:40:32.281Z,0.1
2019-03-13T00:40:44.096Z,0.2
2019-03-13T00:40:55.903Z,0.2
2019-03-13T00:41:07.694Z,0.1
2019-03-13T00:41:19.528Z,0.1
2019-03-13T00:41:31.278Z,0.1
2019-03-13T00:41:43.101Z,0.2
2019-03-13T00:41:54.872Z,0.2
2019-03-13T00:42:07.626Z,0.2
2019-03-13T00:42:19.423Z,0.1
2019-03-13T00:42:31.222Z,0.1
2019-03-13T00:42:43.004Z,0.1
2019-03-13T00:42:54.782Z,0.2
2019-03-13T00:43:06.580Z,0.1
2019-03-13T00:43:18.375Z,0.1
2019-03-13T00:43:30.165Z,0.1
2019-03-13T00:43:41.959Z,0.1
2019-03-13T00:43:53.771Z,0.1
2019-03-13T00:44:05.565Z,0.2
2019-03-13T00:44:17.356Z,0.2
2019-03-13T00:44:29.143Z,0.2
2019-03-13T00:44:40.958Z,0.2
2019-03-13T00:44:52.750Z,0.2
2019-03-13T00:45:04.561Z,0.2
2019-03-13T00:45:16.368Z,0.2
2019-03-13T00:45:28.110Z,0.2
2019-03-13T00:45:39.887Z,0.2
2019-03-13T00:45:51.662Z,0.2
2019-03-13T00:46:08.962Z,0.2
2019-03-13T00:46:20.753Z,0.2
2019-03-13T00:46:32.521Z,0.2
2019-03-13T00:46:44.290Z,0.2
2019-03-13T00:46:56.051Z,0.1
2019-03-13T00:47:07.862Z,0.2
2019-03-13T00:47:19.667Z,0.2
2019-03-13T00:47:31.443Z,0.1
2019-03-13T00:47:43.202Z,0.1
2019-03-13T00:47:54.963Z,0.1
2019-03-13T00:48:06.761Z,0.2
2019-03-13T00:48:18.552Z,0.2
2019-03-13T00:48:30.321Z,0.2
2019-03-13T00:48:42.109Z,0.2
2019-03-13T00:48:53.882Z,0.2
2019-03-13T00:49:05.671Z,0.2
2019-03-13T00:49:17.431Z,0.2
2019-03-13T00:49:29.278Z,0.1
2019-03-13T00:49:41.058Z,0.2
2019-03-13T00:49:52.868Z,0.3
2019-03-13T00:50:04.650Z,0.3
2019-03-13T00:50:16.438Z,0.1
2019-03-13T00:50:28.230Z,0.1
2019-03-13T00:50:40.019Z,0.1
2019-03-13T00:50:51.932Z,0.1
2019-03-13T00:51:03.627Z,0.1
2019-03-13T00:51:15.406Z,0.2
2019-03-13T00:51:27.181Z,0.3
2019-03-13T00:51:39.949Z,0.3
2019-03-13T00:51:51.719Z,0.2
2019-03-13T00:52:03.520Z,0.2
2019-03-13T00:52:15.273Z,0.1
2019-03-13T00:52:27.052Z,0.1
2019-03-13T00:52:38.863Z,0.1
2019-03-13T00:52:50.648Z,0.1
2019-03-13T00:53:02.416Z,0.1
2019-03-13T00:53:14.179Z,0.1
2019-03-13T00:53:25.935Z,0.1
2019-03-13T00:53:37.695Z,0.1
2019-03-13T00:53:49.476Z,0.1
2019-03-13T00:54:01.304Z,0.1
2019-03-13T00:54:13.040Z,0.1
2019-03-13T00:54:24.850Z,0.2
2019-03-13T00:54:36.631Z,0.2
2019-03-13T00:54:48.375Z,0.2
2019-03-13T00:55:00.371Z,0.2
2019-03-13T00:55:11.927Z,0.2
2019-03-13T00:55:23.700Z,0.2
2019-03-13T00:55:35.507Z,0.2
2019-03-13T00:55:47.312Z,0.1
2019-03-13T00:55:59.084Z,0.1
2019-03-13T00:56:10.894Z,0.1
2019-03-13T00:56:22.658Z,0.1
2019-03-13T00:56:34.440Z,0.1
2019-03-13T00:56:46.209Z,0.2
2019-03-13T00:56:57.995Z,0.2
2019-03-13T00:57:09.773Z,0.2
2019-03-13T00:57:21.544Z,0.1
2019-03-13T00:57:33.317Z,0.1
2019-03-13T00:57:45.101Z,0.2
2019-03-13T00:57:56.864Z,0.2
2019-03-13T00:58:08.636Z,0.3
2019-03-13T00:58:20.413Z,0.3
2019-03-13T00:58:32.187Z,0.3
2019-03-13T00:58:43.932Z,0.2
2019-03-13T00:58:55.693Z,0.2
2019-03-13T00:59:07.484Z,0.2
2019-03-13T00:59:19.239Z,0.2
2019-03-13T00:59:31.003Z,0.2
2019-03-13T00:59:42.760Z,0.2
2019-03-13T00:59:54.557Z,0.1
2019-03-13T01:00:06.337Z,0.1
2019-03-13T01:00:18.097Z,0.1
2019-03-13T01:00:29.860Z,0.1
2019-03-13T01:00:41.641Z,0.2
2019-03-13T01:00:53.570Z,0.2
2019-03-13T01:01:05.222Z,0.2
2019-03-13T01:01:17.048Z,0.2
2019-03-13T01:01:28.821Z,0.4
2019-03-13T01:01:40.582Z,0.4
2019-03-13T01:01:52.343Z,0.2
2019-03-13T01:02:05.132Z,0.2
2019-03-13T01:02:16.892Z,0.2
2019-03-13T01:02:28.685Z,0.2
2019-03-13T01:02:40.421Z,0.2
2019-03-13T01:02:52.215Z,0.1
2019-03-13T01:03:04.014Z,0.1
2019-03-13T01:03:15.793Z,0.1
2019-03-13T01:03:27.567Z,0.1
2019-03-13T01:03:39.345Z,0.1
2019-03-13T01:03:51.142Z,0.1
2019-03-13T01:04:02.884Z,0.2
2019-03-13T01:04:14.678Z,0.2
2019-03-13T01:04:26.447Z,0.2
2019-03-13T01:04:38.199Z,0.2
2019-03-13T01:04:49.988Z,0.2
2019-03-13T01:05:01.772Z,0.2
2019-03-13T01:05:13.541Z,0.1
2019-03-13T01:05:25.293Z,0.1
2019-03-13T01:05:37.058Z,0.2
2019-03-13T01:05:48.807Z,0.1
2019-03-13T01:06:00.583Z,0.2
2019-03-13T01:06:13.383Z,0.2
2019-03-13T01:06:25.146Z,0.2
2019-03-13T01:06:36.985Z,0.1
2019-03-13T01:06:48.757Z,0.1
2019-03-13T01:07:00.532Z,0.1
2019-03-13T01:07:12.312Z,0.2
2019-03-13T01:07:24.093Z,0.2
2019-03-13T01:07:35.866Z,0.2
2019-03-13T01:07:47.669Z,0.2
2019-03-13T01:07:59.525Z,0.2
2019-03-13T01:08:11.227Z,0.1
2019-03-13T01:08:23.001Z,0.2
2019-03-13T01:08:34.806Z,0.1
2019-03-13T01:08:46.611Z,0.1
2019-03-13T01:08:58.370Z,0.1
2019-03-13T01:09:10.173Z,0.1
2019-03-13T01:09:21.988Z,0.1
2019-03-13T01:09:33.766Z,0.1
2019-03-13T01:09:45.559Z,0.1
2019-03-13T01:09:57.368Z,0.1
2019-03-13T01:10:09.157Z,0.1
2019-03-13T01:10:20.967Z,0.2
2019-03-13T01:10:32.738Z,0.2
2019-03-13T01:10:44.506Z,0.2
2019-03-13T01:10:56.286Z,0.1
2019-03-13T01:11:08.054Z,0.1
2019-03-13T01:11:19.868Z,0.1
2019-03-13T01:11:32.618Z,0.1
2019-03-13T01:11:44.418Z,0.2
2019-03-13T01:11:56.185Z,0.1
2019-03-13T01:12:07.947Z,0.2
2019-03-13T01:12:19.711Z,0.2
2019-03-13T01:12:31.513Z,0.2
2019-03-13T01:12:43.257Z,0.2
2019-03-13T01:12:55.035Z,4
2019-03-13T01:13:06.937Z,4
2019-03-13T01:13:18.600Z,4
2019-03-13T01:13:30.377Z,0.2
2019-03-13T01:13:42.140Z,0.2
2019-03-13T01:13:53.941Z,0.2
2019-03-13T01:14:05.761Z,0.2
2019-03-13T01:14:17.508Z,0.2
2019-03-13T01:14:29.260Z,0.2
2019-03-13T01:14:41.030Z,0.2
2019-03-13T01:14:52.794Z,0.2
2019-03-13T01:15:04.579Z,0.2
2019-03-13T01:15:16.370Z,0.2
2019-03-13T01:15:28.121Z,0.2
2019-03-13T01:15:39.921Z,0.2
2019-03-13T01:15:51.720Z,0.2
2019-03-13T01:16:03.587Z,0.2
2019-03-13T01:16:15.248Z,0.2
2019-03-13T01:16:27.035Z,0.2
2019-03-13T01:16:38.833Z,0.2
2019-03-13T01:16:50.605Z,0.2
2019-03-13T01:17:02.401Z,0.2
2019-03-13T01:17:14.171Z,0.2
2019-03-13T01:17:25.956Z,0.2
2019-03-13T01:17:39.078Z,0.2
2019-03-13T01:17:49.489Z,0.2
2019-03-13T01:18:01.276Z,0.2
2019-03-13T01:18:13.044Z,0.1
2019-03-13T01:18:24.782Z,0.1
2019-03-13T01:18:36.540Z,0.1
2019-03-13T01:18:48.324Z,0.1
2019-03-13T01:19:00.098Z,0.1
2019-03-13T01:19:11.881Z,0.1
2019-03-13T01:19:23.667Z,0.1
2019-03-13T01:19:35.432Z,0.1
2019-03-13T01:19:47.201Z,0.2
2019-03-13T01:19:58.990Z,0.2
2019-03-13T01:20:10.752Z,0.3
2019-03-13T01:20:22.520Z,0.2
2019-03-13T01:20:35.285Z,0.2
2019-03-13T01:20:47.063Z,0.2
2019-03-13T01:20:58.832Z,0.2
2019-03-13T01:21:10.643Z,0.2
2019-03-13T01:21:22.426Z,0.1
2019-03-13T01:21:34.186Z,0.1
2019-03-13T01:21:45.953Z,0.1
2019-03-13T01:21:57.718Z,0.1
2019-03-13T01:22:09.509Z,0.1
2019-03-13T01:22:21.279Z,0.1
2019-03-13T01:22:33.079Z,0.1
2019-03-13T01:22:44.867Z,0.1
2019-03-13T01:22:56.657Z,0.1
2019-03-13T01:23:08.455Z,0.2
2019-03-13T01:23:20.204Z,0.2
2019-03-13T01:23:31.999Z,0.2
2019-03-13T01:23:43.776Z,0.2
2019-03-13T01:23:55.571Z,0.2
2019-03-13T01:24:07.371Z,0.2
2019-03-13T01:24:19.173Z,0.2
2019-03-13T01:24:30.971Z,0.1
2019-03-13T01:24:42.732Z,0.1
2019-03-13T01:24:54.534Z,0.1
2019-03-13T01:25:06.310Z,0.2
2019-03-13T01:25:18.062Z,0.2
2019-03-13T01:25:29.859Z,0.2
2019-03-13T01:25:41.629Z,0.1
2019-03-13T01:25:53.409Z,0.1
2019-03-13T01:26:05.156Z,0.1
2019-03-13T01:26:16.939Z,0.2
2019-03-13T01:26:28.721Z,0.2
2019-03-13T01:26:40.481Z,0.2
2019-03-13T01:26:52.225Z,0.2
2019-03-13T01:27:03.987Z,0.2
2019-03-13T01:27:15.755Z,0.2
2019-03-13T01:27:27.525Z,0.1
2019-03-13T01:27:39.414Z,0.1
2019-03-13T01:27:51.174Z,0.1
2019-03-13T01:28:02.929Z,0.1
2019-03-13T01:28:14.688Z,0.1
2019-03-13T01:28:26.477Z,0.1
2019-03-13T01:28:38.272Z,0.1
2019-03-13T01:28:50.008Z,0.1
2019-03-13T01:29:01.783Z,0.1
2019-03-13T01:29:13.575Z,0.1
2019-03-13T01:29:25.350Z,0.2
2019-03-13T01:29:37.095Z,0.2
2019-03-13T01:29:48.851Z,0.2
2019-03-13T01:30:00.609Z,0.2
2019-03-13T01:30:12.405Z,0.2
2019-03-13T01:30:25.209Z,0.1
2019-03-13T01:30:36.961Z,0.1
2019-03-13T01:30:48.746Z,0.2
2019-03-13T01:31:00.524Z,0.2
2019-03-13T01:31:12.312Z,0.1
2019-03-13T01:31:24.082Z,0.1
2019-03-13T01:31:35.844Z,1
2019-03-13T01:31:47.606Z,1
2019-03-13T01:31:59.360Z,1
2019-03-13T01:32:11.181Z,0.1
2019-03-13T01:32:22.965Z,0.1
2019-03-13T01:32:34.759Z,0.2
2019-03-13T01:32:46.553Z,0.2
2019-03-13T01:32:58.337Z,0.2
2019-03-13T01:33:10.107Z,0.2
2019-03-13T01:33:21.870Z,0.2
2019-03-13T01:33:34.641Z,0.2
2019-03-13T01:33:46.375Z,0.2
2019-03-13T01:33:58.141Z,0.1
2019-03-13T01:34:09.911Z,0.1
2019-03-13T01:34:21.752Z,0.1
2019-03-13T01:34:34.502Z,0.2
2019-03-13T01:34:46.280Z,0.2
2019-03-13T01:34:58.062Z,0.3
2019-03-13T01:35:09.849Z,0.2
2019-03-13T01:35:21.687Z,0.2
2019-03-13T01:35:33.370Z,0.1
2019-03-13T01:35:45.121Z,0.1
2019-03-13T01:35:56.881Z,0.2
2019-03-13T01:36:08.636Z,0.2
2019-03-13T01:36:20.394Z,0.2
2019-03-13T01:36:32.180Z,0.2
2019-03-13T01:36:43.955Z,0.2
2019-03-13T01:36:55.810Z,0.1
2019-03-13T01:37:07.470Z,0.1
2019-03-13T01:37:19.256Z,0.1
2019-03-13T01:37:31.012Z,0.1
2019-03-13T01:37:42.769Z,0.1
2019-03-13T01:37:54.511Z,0.1
2019-03-13T01:38:06.279Z,0.1
2019-03-13T01:38:18.048Z,0.1
2019-03-13T01:38:29.826Z,0.1
2019-03-13T01:38:41.602Z,0.1
2019-03-13T01:38:53.401Z,0.2
2019-03-13T01:39:05.135Z,0.2
2019-03-13T01:39:16.893Z,0.9
2019-03-13T01:39:28.680Z,0.9
2019-03-13T01:39:40.584Z,0.2
2019-03-13T01:39:52.360Z,0.2
2019-03-13T01:40:04.144Z,0.2
2019-03-13T01:40:15.913Z,0.1
2019-03-13T01:40:27.689Z,0.1
2019-03-13T01:40:39.477Z,0.1
2019-03-13T01:40:51.229Z,0.1
2019-03-13T01:41:03.013Z,0.1
2019-03-13T01:41:14.804Z,0.1
2019-03-13T01:41:26.606Z,0.1
2019-03-13T01:41:38.474Z,0.6
2019-03-13T01:41:50.277Z,0.9
2019-03-13T01:42:02.061Z,0.9
2019-03-13T01:42:13.836Z,0.2
2019-03-13T01:42:25.619Z,0.2
2019-03-13T01:42:37.436Z,0.3
2019-03-13T01:42:49.235Z,0.3
2019-03-13T01:43:01.052Z,0.3
2019-03-13T01:43:12.861Z,0.2
2019-03-13T01:43:24.625Z,0.2
2019-03-13T01:43:36.411Z,0.2
2019-03-13T01:43:48.163Z,0.2
2019-03-13T01:43:59.993Z,0.2
2019-03-13T01:44:11.799Z,0.4
2019-03-13T01:44:23.579Z,0.3
2019-03-13T01:44:35.408Z,0.2
2019-03-13T01:44:47.218Z,0.1
2019-03-13T01:44:59.038Z,0.1
2019-03-13T01:45:10.854Z,0.2
2019-03-13T01:45:22.625Z,0.2
2019-03-13T01:45:34.449Z,0.2
2019-03-13T01:45:46.245Z,0.2
2019-03-13T01:45:58.017Z,0.2
2019-03-13T01:46:09.782Z,0.2
2019-03-13T01:46:21.581Z,0.1
2019-03-13T01:46:33.387Z,0.1
2019-03-13T01:46:45.206Z,0.1
2019-03-13T01:46:57.000Z,0.1
2019-03-13T01:47:08.785Z,0.1
2019-03-13T01:47:20.582Z,0.1
2019-03-13T01:47:32.401Z,0.1
2019-03-13T01:47:44.187Z,0.1
2019-03-13T01:47:55.989Z,0.1
2019-03-13T01:48:07.784Z,0.1
2019-03-13T01:48:19.543Z,0.2
2019-03-13T01:48:31.358Z,0.2
2019-03-13T01:48:43.181Z,0.2
2019-03-13T01:48:54.969Z,0.2
2019-03-13T01:49:06.767Z,0.1
2019-03-13T01:49:18.609Z,0.2
2019-03-13T01:49:30.433Z,0.3
2019-03-13T01:49:42.251Z,0.2
2019-03-13T01:49:54.094Z,0.1
2019-03-13T01:50:05.925Z,0.1
2019-03-13T01:50:17.812Z,0.1
2019-03-13T01:50:29.595Z,0.2
2019-03-13T01:50:41.440Z,0.1
2019-03-13T01:50:53.256Z,0.1
2019-03-13T01:51:05.075Z,0.1
2019-03-13T01:51:16.889Z,0.2
2019-03-13T01:51:28.714Z,0.2
2019-03-13T01:51:40.560Z,0.2
2019-03-13T01:51:52.406Z,0.2
2019-03-13T01:52:04.236Z,0.2
2019-03-13T01:52:16.010Z,0.2
2019-03-13T01:52:27.801Z,0.1
2019-03-13T01:52:39.653Z,0.1
2019-03-13T01:52:51.471Z,0.1
2019-03-13T01:53:03.281Z,0.1
2019-03-13T01:53:15.097Z,0.1
2019-03-13T01:53:26.920Z,0.1
2019-03-13T01:53:38.751Z,0.1
2019-03-13T01:53:50.607Z,0.1
2019-03-13T01:54:02.416Z,0.2
2019-03-13T01:54:14.239Z,0.2
2019-03-13T01:54:26.045Z,0.2
2019-03-13T01:54:37.882Z,0.2
2019-03-13T01:54:49.730Z,0.2
2019-03-13T01:55:01.532Z,0.1
2019-03-13T01:55:13.399Z,2.4
2019-03-13T01:55:25.252Z,2.4
2019-03-13T01:55:37.015Z,2.4
2019-03-13T01:55:48.823Z,0.3
2019-03-13T01:56:00.658Z,0.3
2019-03-13T01:56:12.459Z,0.1
2019-03-13T01:56:24.290Z,0.1
2019-03-13T01:56:36.154Z,0.1
2019-03-13T01:56:47.954Z,0.6
2019-03-13T01:56:59.788Z,0.6
2019-03-13T01:57:11.626Z,0.1
2019-03-13T01:57:23.483Z,0.1
2019-03-13T01:57:35.280Z,0.2
2019-03-13T01:57:47.092Z,0.2
2019-03-13T01:57:58.838Z,0.2
2019-03-13T01:58:10.606Z,0.1
2019-03-13T01:58:22.404Z,0.1
2019-03-13T01:58:34.185Z,0.1
2019-03-13T01:58:45.941Z,0.1
2019-03-13T01:58:57.730Z,0.2
2019-03-13T01:59:09.488Z,0.2
2019-03-13T01:59:21.278Z,0.2
2019-03-13T01:59:33.087Z,0.2
2019-03-13T01:59:44.849Z,0.2
2019-03-13T01:59:56.599Z,0.1
2019-03-13T02:00:08.521Z,0.1
2019-03-13T02:00:20.302Z,0.1
2019-03-13T02:00:32.099Z,0.2
2019-03-13T02:00:43.869Z,0.2
2019-03-13T02:00:55.664Z,0.2
2019-03-13T02:01:07.454Z,0.2
2019-03-13T02:01:19.232Z,0.2
2019-03-13T02:01:31.007Z,0.2
2019-03-13T02:01:42.778Z,0.1
2019-03-13T02:01:54.548Z,0.1
2019-03-13T02:02:06.349Z,0.1
2019-03-13T02:02:18.127Z,0.1
2019-03-13T02:02:29.906Z,0.1
2019-03-13T02:02:41.671Z,0.1
2019-03-13T02:02:53.443Z,0.1
2019-03-13T02:03:05.240Z,0.1
2019-03-13T02:03:17.000Z,0.1
2019-03-13T02:03:28.761Z,0.2
2019-03-13T02:03:40.539Z,0.2
2019-03-13T02:03:52.330Z,0.2
2019-03-13T02:04:04.144Z,0.2
2019-03-13T02:04:15.939Z,0.2
2019-03-13T02:04:27.755Z,0.4
2019-03-13T02:04:39.473Z,0.4
2019-03-13T02:04:51.298Z,0.1
2019-03-13T02:05:03.100Z,0.1
2019-03-13T02:05:14.912Z,0.2
2019-03-13T02:05:26.650Z,0.2
2019-03-13T02:05:38.454Z,0.2
2019-03-13T02:05:50.245Z,0.1
2019-03-13T02:06:02.045Z,0.2
2019-03-13T02:06:13.812Z,0.2
2019-03-13T02:06:25.607Z,0.2
2019-03-13T02:06:37.377Z,0.2
2019-03-13T02:06:49.148Z,0.2
2019-03-13T02:07:00.931Z,0.2
2019-03-13T02:07:12.716Z,0.2
2019-03-13T02:07:24.509Z,0.3
2019-03-13T02:07:36.284Z,0.3
2019-03-13T02:07:48.044Z,0.1
2019-03-13T02:07:59.841Z,0.1
2019-03-13T02:08:11.612Z,0.2
2019-03-13T02:08:23.409Z,0.2
2019-03-13T02:08:35.174Z,0.2
2019-03-13T02:08:46.983Z,0.1
2019-03-13T02:08:58.743Z,0.1
2019-03-13T02:09:10.521Z,0.1
2019-03-13T02:09:22.316Z,0.1
2019-03-13T02:09:34.105Z,0.2
2019-03-13T02:09:45.907Z,0.2
2019-03-13T02:09:57.696Z,0.3
2019-03-13T02:10:09.479Z,0.3
2019-03-13T02:10:21.301Z,0.3
2019-03-13T02:10:33.090Z,0.2
2019-03-13T02:10:44.874Z,0.2
2019-03-13T02:10:56.641Z,0.1
2019-03-13T02:11:08.406Z,0.1
2019-03-13T02:11:20.182Z,0.6
2019-03-13T02:11:31.974Z,0.6
2019-03-13T02:11:43.741Z,0.6
2019-03-13T02:11:55.528Z,0.2
2019-03-13T02:12:07.370Z,0.3
2019-03-13T02:12:19.126Z,0.2
2019-03-13T02:12:30.924Z,0.5
2019-03-13T02:12:42.694Z,0.4
2019-03-13T02:12:54.502Z,0.2
2019-03-13T02:13:06.268Z,0.4
2019-03-13T02:13:18.053Z,0.4
2019-03-13T02:13:29.833Z,0.2
2019-03-13T02:13:41.608Z,0.2
2019-03-13T02:13:53.426Z,0.2
2019-03-13T02:14:05.227Z,0.3
2019-03-13T02:14:16.998Z,0.3
2019-03-13T02:14:28.765Z,0.1
2019-03-13T02:14:40.519Z,0.3
2019-03-13T02:14:52.398Z,0.3
2019-03-13T02:15:04.171Z,0.3
2019-03-13T02:15:16.043Z,0.1
2019-03-13T02:15:27.771Z,0.1
2019-03-13T02:15:39.533Z,0.1
2019-03-13T02:15:51.298Z,0.2
2019-03-13T02:16:03.071Z,0.2
2019-03-13T02:16:14.832Z,0.2
2019-03-13T02:16:26.641Z,0.2
2019-03-13T02:16:38.414Z,0.2
2019-03-13T02:16:50.206Z,0.2
2019-03-13T02:17:02.019Z,0.2
2019-03-13T02:17:13.828Z,0.1
2019-03-13T02:17:25.639Z,0.1
2019-03-13T02:17:37.424Z,0.1
2019-03-13T02:17:49.238Z,0.1
2019-03-13T02:18:01.025Z,0.1
2019-03-13T02:18:12.815Z,0.1
2019-03-13T02:18:24.602Z,0.1
2019-03-13T02:18:36.389Z,0.1
2019-03-13T02:18:48.137Z,0.1
2019-03-13T02:18:59.912Z,0.1
2019-03-13T02:19:11.700Z,0.1
2019-03-13T02:19:23.478Z,0.2
2019-03-13T02:19:35.284Z,0.3
2019-03-13T02:19:49.689Z,0.2
2019-03-13T02:19:58.870Z,0.2
2019-03-13T02:20:10.646Z,0.2
2019-03-13T02:20:22.413Z,0.1
2019-03-13T02:20:34.179Z,0.1
2019-03-13T02:20:45.961Z,0.1
2019-03-13T02:20:57.742Z,0.1
2019-03-13T02:21:09.641Z,0.1
2019-03-13T02:21:21.333Z,0.1
2019-03-13T02:21:33.146Z,0.1
2019-03-13T02:21:44.946Z,0.1
2019-03-13T02:21:56.732Z,0.1
2019-03-13T02:22:08.516Z,0.2
2019-03-13T02:22:20.309Z,0.3
2019-03-13T02:22:32.081Z,0.3
2019-03-13T02:22:43.892Z,0.6
2019-03-13T02:22:55.682Z,0.6
2019-03-13T02:23:07.435Z,0.6
2019-03-13T02:23:19.233Z,0.1
2019-03-13T02:23:31.001Z,0.1
2019-03-13T02:23:42.818Z,0.1
2019-03-13T02:23:54.619Z,0.1
2019-03-13T02:24:06.379Z,0.1
2019-03-13T02:24:18.185Z,0.1
2019-03-13T02:24:29.971Z,0.1
2019-03-13T02:24:41.784Z,0.1
2019-03-13T02:24:54.290Z,0.1
2019-03-13T02:25:05.393Z,0.2
2019-03-13T02:25:17.178Z,0.2
2019-03-13T02:25:28.959Z,0.2
2019-03-13T02:25:40.731Z,0.2
2019-03-13T02:25:52.516Z,0.2
2019-03-13T02:26:04.280Z,0.2
2019-03-13T02:26:16.080Z,0.2
2019-03-13T02:26:27.873Z,0.1
2019-03-13T02:26:39.657Z,0.1
2019-03-13T02:26:51.427Z,0.9
2019-03-13T02:27:03.237Z,0.8
2019-03-13T02:27:15.023Z,0.4
2019-03-13T02:27:26.817Z,0.1
2019-03-13T02:27:38.594Z,0.1
2019-03-13T02:27:50.395Z,0.1
2019-03-13T02:28:02.203Z,0.2
2019-03-13T02:28:14.027Z,0.2
2019-03-13T02:28:25.789Z,0.2
2019-03-13T02:28:37.579Z,0.2
2019-03-13T02:28:49.765Z,0.2
2019-03-13T02:29:01.616Z,0.2
2019-03-13T02:29:13.425Z,0.2
2019-03-13T02:29:25.229Z,0.2
2019-03-13T02:29:37.012Z,0.2
2019-03-13T02:29:48.849Z,0.2
2019-03-13T02:30:00.916Z,0.1
2019-03-13T02:30:12.396Z,0.1
2019-03-13T02:30:24.168Z,0.1
2019-03-13T02:30:35.972Z,1.2
2019-03-13T02:30:47.752Z,1.2
2019-03-13T02:30:59.544Z,0.1
2019-03-13T02:31:11.324Z,0.1
2019-03-13T02:31:23.105Z,0.2
2019-03-13T02:31:34.881Z,0.2
2019-03-13T02:31:46.666Z,0.2
2019-03-13T02:31:58.445Z,0.2
2019-03-13T02:32:10.204Z,0.2
2019-03-13T02:32:21.967Z,0.3
2019-03-13T02:32:33.758Z,0.3
2019-03-13T02:32:45.571Z,0.3
2019-03-13T02:32:57.369Z,0.2
2019-03-13T02:33:09.168Z,0.1
2019-03-13T02:33:21.944Z,0.1
2019-03-13T02:33:33.744Z,0.1
2019-03-13T02:33:45.516Z,0.2
2019-03-13T02:33:57.269Z,0.2
2019-03-13T02:34:09.055Z,0.4
2019-03-13T02:34:21.020Z,0.4
2019-03-13T02:34:32.656Z,0.2
2019-03-13T02:34:44.455Z,0.2
2019-03-13T02:34:56.239Z,0.2
2019-03-13T02:35:08.003Z,0.1
2019-03-13T02:35:19.773Z,0.1
2019-03-13T02:35:31.555Z,0.1
2019-03-13T02:35:43.337Z,0.2
2019-03-13T02:35:55.097Z,0.2
2019-03-13T02:36:06.894Z,0.2
2019-03-13T02:36:18.656Z,0.1
2019-03-13T02:36:30.443Z,0.1
2019-03-13T02:36:42.251Z,0.1
2019-03-13T02:36:54.008Z,0.4
2019-03-13T02:37:05.786Z,0.4
2019-03-13T02:37:17.598Z,0.2
2019-03-13T02:37:29.338Z,0.2
2019-03-13T02:37:41.119Z,0.2
2019-03-13T02:37:52.905Z,0.2
2019-03-13T02:38:04.651Z,0.2
2019-03-13T02:38:16.420Z,0.2
2019-03-13T02:38:28.242Z,0.2
2019-03-13T02:38:40.040Z,0.2
2019-03-13T02:38:51.860Z,0.2
2019-03-13T02:39:03.688Z,0.2
2019-03-13T02:39:15.518Z,0.1
2019-03-13T02:39:27.328Z,0.1
2019-03-13T02:39:39.101Z,0.1
2019-03-13T02:39:51.037Z,0.6
2019-03-13T02:40:02.830Z,0.6
2019-03-13T02:40:14.598Z,0.5
2019-03-13T02:40:26.438Z,0.2
2019-03-13T02:40:38.256Z,0.2
2019-03-13T02:40:50.029Z,0.2
2019-03-13T02:41:01.806Z,0.2
2019-03-13T02:41:13.583Z,1.2
2019-03-13T02:41:25.386Z,1.1
2019-03-13T02:41:38.197Z,0.2
2019-03-13T02:41:49.988Z,0.2
2019-03-13T02:42:01.821Z,0.1
2019-03-13T02:42:13.644Z,0.1
2019-03-13T02:42:25.440Z,0.9
2019-03-13T02:42:37.238Z,0.9
2019-03-13T02:42:49.037Z,0.2